Time;durP1;ratioP1;P1;durP2;ratioP2;P2;SDS_P1;SDS_P2;PMS_P1;PMS_P2;Temp;Humidity;BMP_temperature;BMP_pressure;BME280_temperature;BME280_humidity;BME280_pressure;Samples;Min_cycle;Max_cycle;Signal;HPM_P1;HPM_P2
2021/06/15 00:00:04;;;;;;;5.47;2.88;;;19.50;70.40;;;;;;2087314;28;20025;-84
2021/06/15 00:01:05;;;;;;;5.88;3.05;;;19.50;70.40;;;;;;2087942;28;20036;-84
2021/06/15 00:02:05;;;;;;;4.50;2.70;;;19.50;70.40;;;;;;2087979;28;20056;-84
2021/06/15 00:03:06;;;;;;;3.70;2.50;;;19.50;70.40;;;;;;2085130;28;20053;-84
2021/06/15 00:04:07;;;;;;;3.60;2.50;;;19.50;70.40;;;;;;2077730;28;20041;-84
2021/06/15 00:05:09;;;;;;;4.28;2.70;;;19.50;70.50;;;;;;2084840;28;20406;-84
2021/06/15 00:06:10;;;;;;;5.45;2.88;;;19.50;70.50;;;;;;2084313;28;20036;-84
2021/06/15 00:07:11;;;;;;;4.60;2.80;;;19.50;70.50;;;;;;2089259;28;20074;-84
2021/06/15 00:08:12;;;;;;;4.60;2.60;;;19.50;70.50;;;;;;2094566;28;20032;-85
2021/06/15 00:09:12;;;;;;;4.78;2.67;;;19.50;70.50;;;;;;2096308;28;20013;-84
2021/06/15 00:10:23;;;;;;;4.60;2.40;;;19.40;70.50;;;;;;2085427;28;20040;-84
2021/06/15 00:11:24;;;;;;;5.03;2.78;;;19.40;70.50;;;;;;2089245;28;20013;-85
2021/06/15 00:12:25;;;;;;;3.80;2.33;;;19.40;70.50;;;;;;2095313;28;20028;-84
2021/06/15 00:13:25;;;;;;;4.63;2.45;;;19.40;70.50;;;;;;2076040;28;20033;-84
2021/06/15 00:14:26;;;;;;;4.07;2.40;;;19.40;70.50;;;;;;2086480;28;20377;-84
2021/06/15 00:15:27;;;;;;;4.32;2.50;;;19.40;70.50;;;;;;2089377;28;20089;-85
2021/06/15 00:16:28;;;;;;;4.28;2.40;;;19.40;71.10;;;;;;2089008;28;20029;-84
2021/06/15 00:17:29;;;;;;;4.45;2.38;;;19.40;70.50;;;;;;2088614;28;20029;-84
2021/06/15 00:18:31;;;;;;;5.63;2.60;;;19.40;70.50;;;;;;2080920;28;20034;-84
2021/06/15 00:19:32;;;;;;;5.28;2.78;;;19.40;70.50;;;;;;2081191;28;20463;-84
2021/06/15 00:20:33;;;;;;;5.45;2.60;;;19.30;70.50;;;;;;2089843;28;20049;-84
2021/06/15 00:21:34;;;;;;;5.15;2.47;;;19.30;70.50;;;;;;2089074;28;20098;-84
2021/06/15 00:22:35;;;;;;;4.95;3.00;;;19.30;70.50;;;;;;2088486;28;20017;-83
2021/06/15 00:23:35;;;;;;;4.85;2.70;;;19.30;70.60;;;;;;2080598;28;20532;-84
2021/06/15 00:24:36;;;;;;;4.85;2.72;;;19.30;70.70;;;;;;2058384;28;20034;-83
2021/06/15 00:25:36;;;;;;;4.32;2.33;;;19.30;70.70;;;;;;2078396;28;20518;-84
2021/06/15 00:26:37;;;;;;;3.63;2.40;;;19.20;70.70;;;;;;2094820;28;20120;-84
2021/06/15 00:27:38;;;;;;;4.68;2.42;;;19.20;70.80;;;;;;2091738;28;20051;-83
2021/06/15 00:28:38;;;;;;;3.72;2.40;;;19.20;70.80;;;;;;2095271;28;20051;-83
2021/06/15 00:29:39;;;;;;;4.63;2.70;;;19.20;70.90;;;;;;2095897;28;20041;-84
2021/06/15 00:30:40;;;;;;;3.65;2.30;;;19.20;70.90;;;;;;2095963;28;20056;-84
2021/06/15 00:31:41;;;;;;;4.00;2.22;;;19.20;70.80;;;;;;2095705;28;20063;-84
2021/06/15 00:32:41;;;;;;;3.95;2.30;;;19.20;70.80;;;;;;2095268;28;20052;-84
2021/06/15 00:33:42;;;;;;;3.97;2.42;;;19.20;70.80;;;;;;2080868;28;20030;-84
2021/06/15 00:34:42;;;;;;;4.55;2.20;;;19.20;70.80;;;;;;2071666;28;20112;-83
2021/06/15 00:35:43;;;;;;;3.90;2.20;;;19.20;70.70;;;;;;2080142;28;20053;-83
2021/06/15 00:36:44;;;;;;;4.88;2.70;;;19.20;70.70;;;;;;2080577;28;20586;-84
2021/06/15 00:37:45;;;;;;;2.95;2.28;;;19.20;70.70;;;;;;2080657;28;20133;-84
2021/06/15 00:38:46;;;;;;;5.10;2.33;;;19.20;70.80;;;;;;2088757;28;20138;-84
2021/06/15 00:39:48;;;;;;;8.25;2.78;;;19.20;70.70;;;;;;2088659;28;20167;-84
2021/06/15 00:40:50;;;;;;;5.35;2.70;;;19.20;70.70;;;;;;2088767;28;20411;-84
2021/06/15 00:41:51;;;;;;;4.20;2.67;;;19.10;70.70;;;;;;2087763;28;20037;-83
2021/06/15 00:42:52;;;;;;;3.10;2.20;;;19.10;70.80;;;;;;2072661;28;20030;-83
2021/06/15 00:43:52;;;;;;;3.72;2.38;;;19.10;71.00;;;;;;2080982;28;20029;-84
2021/06/15 00:44:53;;;;;;;3.78;2.28;;;19.00;71.00;;;;;;2088542;28;20025;-84
2021/06/15 00:45:54;;;;;;;4.35;2.20;;;19.00;71.10;;;;;;2089437;28;20029;-83
2021/06/15 00:46:54;;;;;;;3.65;2.50;;;19.00;71.10;;;;;;2088481;28;20592;-84
2021/06/15 00:47:56;;;;;;;4.15;2.60;;;19.00;71.10;;;;;;2081814;28;20767;-84
2021/06/15 00:48:56;;;;;;;4.32;2.35;;;18.90;71.10;;;;;;2089058;28;20021;-84
2021/06/15 00:49:57;;;;;;;3.53;2.38;;;18.90;71.10;;;;;;2079742;28;20575;-84
2021/06/15 00:50:59;;;;;;;3.30;2.10;;;18.90;71.10;;;;;;2082344;28;20036;-84
2021/06/15 00:51:59;;;;;;;3.88;2.47;;;18.90;71.20;;;;;;2096474;28;20039;-84
2021/06/15 00:53:00;;;;;;;4.97;2.40;;;18.90;71.30;;;;;;2089039;28;20029;-84
2021/06/15 00:54:01;;;;;;;4.43;2.60;;;18.90;71.30;;;;;;2096856;28;20115;-84
2021/06/15 00:55:03;;;;;;;4.47;2.60;;;18.80;71.30;;;;;;2088371;28;20457;-84
2021/06/15 00:56:04;;;;;;;4.10;2.45;;;18.80;71.30;;;;;;2080974;28;20026;-84
2021/06/15 00:57:05;;;;;;;3.53;2.30;;;18.80;71.30;;;;;;2089168;28;20035;-84
2021/06/15 00:58:06;;;;;;;4.13;2.20;;;18.80;71.40;;;;;;2088575;28;20056;-83
2021/06/15 00:59:07;;;;;;;4.32;2.05;;;18.80;71.40;;;;;;2088799;28;20033;-83
2021/06/15 01:00:08;;;;;;;4.70;2.30;;;18.80;71.40;;;;;;2078841;28;20026;-82
2021/06/15 01:01:09;;;;;;;3.60;2.15;;;18.80;71.40;;;;;;2088570;28;20033;-83
2021/06/15 01:02:11;;;;;;;3.90;2.35;;;18.80;71.40;;;;;;2088066;28;20131;-83
2021/06/15 01:03:12;;;;;;;5.05;2.35;;;18.80;71.50;;;;;;2086004;28;20029;-83
2021/06/15 01:04:15;;;;;;;4.28;2.40;;;18.80;71.40;;;;;;2080374;28;20041;-83
2021/06/15 01:05:16;;;;;;;3.53;2.30;;;18.70;71.40;;;;;;2080825;28;20582;-83
2021/06/15 01:06:28;;;;;;;3.25;2.10;;;18.70;71.40;;;;;;2088304;28;20036;-84
2021/06/15 01:07:38;;;;;;;3.25;2.00;;;18.70;71.50;;;;;;2086735;28;20021;-83
2021/06/15 01:08:53;;;;;;;4.38;2.38;;;18.70;71.50;;;;;;2085853;28;20029;-84
2021/06/15 01:10:03;;;;;;;5.22;2.20;;;18.70;71.40;;;;;;2086585;28;20029;-84
2021/06/15 01:11:36;;;;;;;4.32;2.10;;;18.70;71.40;;;;;;2088975;28;20029;-83
2021/06/15 01:12:46;;;;;;;3.95;2.60;;;18.60;71.40;;;;;;2089764;28;20058;-84
2021/06/15 01:14:10;;;;;;;4.20;2.40;;;18.60;72.00;;;;;;2090635;28;20025;-84
2021/06/15 01:15:17;;;;;;;3.63;2.00;;;18.60;71.50;;;;;;2090151;28;20109;-83
2021/06/15 01:16:43;;;;;;;4.05;2.25;;;18.60;71.60;;;;;;2089583;28;20116;-83
2021/06/15 01:18:01;;;;;;;4.00;2.10;;;18.50;71.60;;;;;;2090844;28;20028;-84
2021/06/15 01:19:31;;;;;;;4.57;2.20;;;18.50;71.50;;;;;;2090454;28;20402;-84
2021/06/15 01:20:41;;;;;;;4.43;2.27;;;18.50;71.50;;;;;;2082574;28;20060;-83
2021/06/15 01:21:55;;;;;;;3.80;2.25;;;18.50;71.50;;;;;;2081989;28;20027;-84
2021/06/15 01:23:05;;;;;;;3.38;2.13;;;18.50;72.10;;;;;;2088716;28;20043;-84
2021/06/15 01:24:21;;;;;;;3.28;1.92;;;18.50;71.60;;;;;;2090911;28;20033;-83
2021/06/15 01:25:52;;;;;;;2.97;2.05;;;18.50;71.60;;;;;;2088992;28;20035;-83
2021/06/15 01:27:02;;;;;;;;;;;18.40;71.50;;;;;;2088128;28;20021;-84
2021/06/15 01:28:13;;;;;;;3.00;1.95;;;18.40;71.30;;;;;;2089907;28;19996;-84
2021/06/15 01:29:29;;;;;;;4.18;2.17;;;18.50;71.30;;;;;;2090171;28;20478;-84
2021/06/15 01:30:38;;;;;;;4.25;2.15;;;18.40;71.30;;;;;;2086485;28;20316;-83
2021/06/15 01:31:47;;;;;;;4.75;1.98;;;18.30;71.40;;;;;;2090149;28;20121;-84
2021/06/15 01:32:58;;;;;;;2.60;1.95;;;18.30;71.50;;;;;;2085457;28;20022;-84
2021/06/15 01:34:04;;;;;;;3.65;2.05;;;18.30;71.60;;;;;;2089144;28;20036;-84
2021/06/15 01:35:06;;;;;;;4.00;2.10;;;18.30;71.70;;;;;;2097326;28;20021;-84
2021/06/15 01:36:10;;;;;;;4.50;2.30;;;18.30;71.80;;;;;;2081344;28;20511;-84
2021/06/15 01:37:36;;;;;;;3.63;2.05;;;18.30;71.90;;;;;;2074015;28;20037;-84
2021/06/15 01:38:45;;;;;;;2.65;1.80;;;18.30;71.80;;;;;;2077088;28;21697;-84
2021/06/15 01:39:52;;;;;;;3.35;2.20;;;18.20;71.80;;;;;;2074731;28;20072;-84
2021/06/15 01:41:10;;;;;;;2.88;2.03;;;18.20;71.90;;;;;;2080473;28;20104;-84
2021/06/15 01:42:17;;;;;;;3.95;2.20;;;18.20;72.00;;;;;;2080737;28;20033;-83
2021/06/15 01:43:23;;;;;;;3.60;2.00;;;18.20;72.10;;;;;;2081617;28;20041;-84
2021/06/15 01:44:27;;;;;;;4.80;2.40;;;18.20;72.10;;;;;;2081469;28;20037;-84
2021/06/15 01:45:32;;;;;;;3.90;2.08;;;18.20;72.10;;;;;;2073443;28;20050;-85
2021/06/15 01:46:41;;;;;;;4.82;2.10;;;18.20;72.10;;;;;;2081674;28;20057;-84
2021/06/15 01:47:51;;;;;;;2.95;1.95;;;18.20;72.10;;;;;;2081193;28;20022;-84
2021/06/15 01:49:02;;;;;;;3.78;2.55;;;18.20;72.10;;;;;;2081757;28;20442;-85
2021/06/15 01:50:06;;;;;;;3.70;2.00;;;18.20;72.00;;;;;;2081828;28;20418;-84
2021/06/15 01:51:09;;;;;;;2.83;2.10;;;18.20;72.00;;;;;;2081628;28;20057;-84
2021/06/15 01:52:12;;;;;;;3.83;2.25;;;18.20;72.10;;;;;;2081276;28;20499;-84
2021/06/15 01:53:15;;;;;;;3.65;2.05;;;18.20;72.10;;;;;;2073155;28;20026;-85
2021/06/15 01:54:23;;;;;;;3.70;2.03;;;18.20;72.20;;;;;;2066590;28;20058;-84
2021/06/15 01:55:26;;;;;;;3.85;2.20;;;18.20;72.20;;;;;;2074392;28;20030;-85
2021/06/15 01:56:31;;;;;;;2.53;1.77;;;18.20;72.20;;;;;;2073752;28;20040;-85
2021/06/15 01:57:33;;;;;;;3.75;2.15;;;18.20;72.90;;;;;;2073820;28;20454;-84
2021/06/15 01:58:34;;;;;;;4.97;2.40;;;18.20;72.30;;;;;;2081327;28;20406;-84
2021/06/15 01:59:37;;;;;;;3.95;2.10;;;18.20;72.30;;;;;;2079461;28;20087;-85
2021/06/15 02:00:38;;;;;;;4.25;1.95;;;18.20;72.30;;;;;;2079648;28;20033;-84
2021/06/15 02:01:47;;;;;;;4.70;1.92;;;18.20;72.30;;;;;;2080768;28;20642;-85
2021/06/15 02:02:49;;;;;;;4.75;2.47;;;18.20;72.30;;;;;;2081323;28;20113;-84
2021/06/15 02:03:52;;;;;;;5.07;2.38;;;18.20;72.30;;;;;;2065250;28;20535;-85
2021/06/15 02:04:54;;;;;;;3.55;2.10;;;18.20;72.30;;;;;;2057911;28;20130;-84
2021/06/15 02:05:57;;;;;;;3.60;2.00;;;18.10;72.20;;;;;;2065185;28;20388;-84
2021/06/15 02:07:00;;;;;;;3.72;2.13;;;18.20;72.40;;;;;;2077682;28;20021;-84
2021/06/15 02:08:04;;;;;;;3.35;1.77;;;18.10;72.30;;;;;;2078028;28;20034;-84
2021/06/15 02:09:07;;;;;;;5.97;2.42;;;18.20;72.40;;;;;;2072833;28;20420;-85
2021/06/15 02:10:12;;;;;;;4.00;1.95;;;18.10;72.30;;;;;;2070331;28;20046;-84
2021/06/15 02:11:14;;;;;;;3.47;2.03;;;18.20;72.30;;;;;;2075688;28;20496;-84
2021/06/15 02:12:18;;;;;;;3.58;1.95;;;18.10;72.30;;;;;;2081753;28;20041;-84
2021/06/15 02:13:19;;;;;;;4.35;2.17;;;18.10;72.30;;;;;;2081214;28;20033;-84
2021/06/15 02:14:25;;;;;;;3.55;1.98;;;18.10;72.40;;;;;;2081567;28;20037;-84
2021/06/15 02:15:28;;;;;;;3.13;2.05;;;18.10;72.40;;;;;;2073346;28;20037;-84
2021/06/15 02:16:29;;;;;;;4.65;2.20;;;18.20;72.40;;;;;;2073988;28;20026;-84
2021/06/15 02:17:32;;;;;;;2.83;1.80;;;18.20;72.30;;;;;;2073156;28;20121;-84
2021/06/15 02:18:34;;;;;;;3.75;2.20;;;18.20;72.30;;;;;;2064902;28;20026;-84
2021/06/15 02:19:38;;;;;;;4.47;2.10;;;18.20;72.20;;;;;;2069032;28;20069;-84
2021/06/15 02:20:43;;;;;;;2.78;1.83;;;18.20;72.20;;;;;;2081276;28;20026;-84
2021/06/15 02:21:52;;;;;;;3.70;2.10;;;18.20;72.20;;;;;;2080796;28;20498;-84
2021/06/15 02:22:55;;;;;;;4.88;1.90;;;18.20;72.10;;;;;;2080565;28;20037;-83
2021/06/15 02:23:58;;;;;;;5.15;2.05;;;18.20;72.10;;;;;;2080954;28;20025;-83
2021/06/15 02:25:01;;;;;;;4.20;2.13;;;18.20;72.10;;;;;;2064420;28;20030;-83
2021/06/15 02:26:06;;;;;;;3.58;2.15;;;18.20;72.00;;;;;;2071789;28;20053;-84
2021/06/15 02:27:09;;;;;;;4.38;2.10;;;18.30;71.90;;;;;;2074923;28;20496;-83
2021/06/15 02:28:11;;;;;;;5.07;2.50;;;18.20;71.90;;;;;;2077573;28;20029;-84
2021/06/15 02:29:11;;;;;;;4.50;1.90;;;18.20;71.90;;;;;;2065083;28;20031;-84
2021/06/15 02:30:13;;;;;;;4.68;2.13;;;18.20;71.90;;;;;;2068381;28;20037;-84
2021/06/15 02:31:25;;;;;;;4.00;2.00;;;18.20;72.60;;;;;;2082234;28;20036;-84
2021/06/15 02:32:31;;;;;;;3.83;1.90;;;18.20;72.00;;;;;;2082323;28;20030;-84
2021/06/15 02:33:40;;;;;;;3.30;1.85;;;18.20;72.00;;;;;;2080995;28;20034;-84
2021/06/15 02:34:46;;;;;;;3.85;2.03;;;18.20;72.00;;;;;;2073682;28;20042;-83
2021/06/15 02:35:51;;;;;;;4.90;2.00;;;18.20;72.00;;;;;;2087001;28;20052;-84
2021/06/15 02:36:53;;;;;;;4.25;2.08;;;18.20;72.00;;;;;;2089467;28;20510;-83
2021/06/15 02:38:05;;;;;;;2.90;1.77;;;18.20;71.90;;;;;;2089412;28;20045;-84
2021/06/15 02:39:09;;;;;;;4.45;2.30;;;18.20;71.80;;;;;;2090404;28;20040;-84
2021/06/15 02:40:11;;;;;;;3.38;1.80;;;18.20;71.80;;;;;;2097000;28;20229;-84
2021/06/15 02:41:14;;;;;;;2.92;1.92;;;18.20;71.70;;;;;;2089262;28;20021;-84
2021/06/15 02:42:17;;;;;;;3.53;1.90;;;18.20;71.70;;;;;;2081672;28;20025;-84
2021/06/15 02:43:23;;;;;;;3.70;1.65;;;18.20;71.70;;;;;;2088848;28;20033;-84
2021/06/15 02:44:30;;;;;;;3.25;1.88;;;18.20;71.70;;;;;;2089568;28;20034;-83
2021/06/15 02:45:35;;;;;;;3.67;1.83;;;18.20;71.60;;;;;;2089566;28;20020;-84
2021/06/15 02:46:37;;;;;;;5.07;2.25;;;18.30;71.60;;;;;;2089442;28;20052;-84
2021/06/15 02:47:39;;;;;;;3.13;1.70;;;18.30;71.60;;;;;;2081590;28;20029;-84
2021/06/15 02:48:46;;;;;;;4.22;1.90;;;18.30;71.50;;;;;;2089238;28;20033;-84
2021/06/15 02:49:56;;;;;;;3.75;2.00;;;18.30;71.50;;;;;;2082037;28;20026;-84
2021/06/15 02:50:58;;;;;;;3.97;1.98;;;18.20;71.30;;;;;;2090094;28;20477;-84
2021/06/15 02:52:12;;;;;;;4.40;2.03;;;18.20;71.30;;;;;;2089458;28;20486;-84
2021/06/15 02:53:23;;;;;;;3.65;2.00;;;18.20;71.30;;;;;;2089502;28;20024;-84
2021/06/15 02:54:29;;;;;;;2.67;1.65;;;18.20;71.30;;;;;;2089158;28;20071;-84
2021/06/15 02:55:35;;;;;;;4.47;2.00;;;18.20;71.30;;;;;;2089667;28;20108;-84
2021/06/15 02:56:41;;;;;;;3.00;1.60;;;18.20;71.30;;;;;;2088513;28;20060;-83
2021/06/15 02:57:42;;;;;;;3.15;1.80;;;18.20;71.30;;;;;;2090007;28;20029;-84
2021/06/15 02:58:44;;;;;;;3.53;2.05;;;18.10;71.20;;;;;;2097528;28;20032;-84
2021/06/15 02:59:46;;;;;;;2.75;1.80;;;18.10;71.20;;;;;;2087504;28;20044;-83
2021/06/15 03:00:47;;;;;;;2.97;1.65;;;18.10;71.20;;;;;;2078537;28;20032;-84
2021/06/15 03:01:52;;;;;;;2.45;1.63;;;18.10;71.30;;;;;;2071771;28;20219;-84
2021/06/15 03:02:53;;;;;;;3.55;1.80;;;18.10;71.30;;;;;;2073560;28;20527;-84
2021/06/15 03:03:53;;;;;;;4.25;1.85;;;18.10;71.20;;;;;;2081080;28;20041;-84
2021/06/15 03:04:54;;;;;;;3.50;1.67;;;18.10;71.10;;;;;;2080783;28;20033;-84
2021/06/15 03:05:54;;;;;;;3.60;1.60;;;18.10;71.00;;;;;;2072707;28;20030;-84
2021/06/15 03:06:56;;;;;;;3.42;1.73;;;18.10;71.00;;;;;;2064810;28;20489;-84
2021/06/15 03:07:56;;;;;;;4.53;1.55;;;18.10;71.00;;;;;;2081149;28;20033;-84
2021/06/15 03:08:58;;;;;;;1.75;1.38;;;18.10;71.00;;;;;;2074662;28;20070;-84
2021/06/15 03:10:04;;;;;;;2.85;1.60;;;18.10;71.00;;;;;;2073646;28;20041;-84
2021/06/15 03:11:06;;;;;;;2.83;1.40;;;18.10;71.00;;;;;;2081085;28;20108;-84
2021/06/15 03:12:14;;;;;;;4.47;1.70;;;18.10;71.00;;;;;;2081096;28;20139;-84
2021/06/15 03:13:23;;;;;;;2.50;1.45;;;18.10;71.00;;;;;;2089464;28;20495;-84
2021/06/15 03:14:28;;;;;;;2.28;1.23;;;18.00;70.90;;;;;;2081655;28;20365;-84
2021/06/15 03:15:41;;;;;;;3.67;1.63;;;18.10;70.90;;;;;;2081653;28;20084;-84
2021/06/15 03:16:42;;;;;;;2.97;1.60;;;18.10;70.80;;;;;;2086048;28;20116;-85
2021/06/15 03:17:54;;;;;;;2.67;1.42;;;18.10;70.70;;;;;;2089172;28;20513;-84
2021/06/15 03:19:02;;;;;;;2.42;1.30;;;18.10;70.70;;;;;;2096735;28;20024;-84
2021/06/15 03:20:08;;;;;;;2.13;1.40;;;18.20;70.70;;;;;;2088180;28;20060;-84
2021/06/15 03:21:11;;;;;;;3.10;1.63;;;18.20;70.70;;;;;;2081091;28;20051;-84
2021/06/15 03:22:25;;;;;;;3.28;1.60;;;18.20;70.60;;;;;;2089271;28;20399;-83
2021/06/15 03:23:47;;;;;;;4.75;1.65;;;18.10;70.60;;;;;;2093971;28;20477;-84
2021/06/15 03:24:58;;;;;;;3.88;1.70;;;18.20;70.70;;;;;;2083693;28;20115;-84
2021/06/15 03:26:03;;;;;;;3.90;1.52;;;18.20;70.60;;;;;;2082031;28;20032;-84
2021/06/15 03:27:09;;;;;;;3.67;1.50;;;18.20;70.60;;;;;;2084856;28;20035;-84
2021/06/15 03:28:20;;;;;;;2.42;1.50;;;18.20;70.70;;;;;;2096935;28;20029;-84
2021/06/15 03:29:24;;;;;;;4.30;1.63;;;18.20;70.60;;;;;;2089658;28;20033;-84
2021/06/15 03:30:26;;;;;;;2.75;1.40;;;18.20;70.70;;;;;;2086650;28;20021;-84
2021/06/15 03:31:33;;;;;;;3.38;1.70;;;18.20;70.70;;;;;;2088895;28;20526;-84
2021/06/15 03:32:53;;;;;;;2.25;1.42;;;18.10;71.30;;;;;;2081963;28;20029;-84
2021/06/15 03:33:57;;;;;;;3.42;1.52;;;18.20;70.70;;;;;;2091711;28;20372;-85
2021/06/15 03:34:58;;;;;;;4.10;1.70;;;18.10;70.60;;;;;;2073376;28;20034;-84
2021/06/15 03:36:01;;;;;;;3.65;1.80;;;18.20;70.70;;;;;;2073029;28;20030;-84
2021/06/15 03:37:02;;;;;;;3.00;1.60;;;18.20;70.70;;;;;;2098059;28;20359;-84
2021/06/15 03:38:05;;;;;;;2.92;1.50;;;18.20;70.70;;;;;;2097673;28;20078;-84
2021/06/15 03:39:06;;;;;;;2.67;1.50;;;18.10;70.70;;;;;;2088749;28;20028;-84
2021/06/15 03:40:08;;;;;;;2.60;1.52;;;18.10;70.80;;;;;;2087752;28;20040;-83
2021/06/15 03:41:10;;;;;;;4.47;1.85;;;18.10;70.80;;;;;;2072171;28;20030;-84
2021/06/15 03:42:19;;;;;;;2.10;1.48;;;18.10;70.90;;;;;;2080994;28;20033;-83
2021/06/15 03:43:21;;;;;;;4.07;1.58;;;18.10;70.90;;;;;;2095800;28;20112;-84
2021/06/15 03:44:22;;;;;;;2.97;1.60;;;18.10;71.00;;;;;;2083467;28;20120;-84
2021/06/15 03:45:32;;;;;;;2.88;1.42;;;18.10;71.00;;;;;;2072605;28;20026;-84
2021/06/15 03:46:35;;;;;;;2.33;1.50;;;18.10;71.00;;;;;;2083654;28;20028;-84
2021/06/15 03:47:39;;;;;;;3.50;1.60;;;18.00;70.90;;;;;;2088620;28;20025;-84
2021/06/15 03:48:42;;;;;;;2.95;1.40;;;18.10;70.90;;;;;;2088841;28;20021;-84
2021/06/15 03:49:45;;;;;;;2.63;1.40;;;18.10;70.80;;;;;;2089102;28;20086;-84
2021/06/15 03:50:49;;;;;;;1.80;1.15;;;18.10;70.70;;;;;;2089139;28;20032;-84
2021/06/15 03:51:58;;;;;;;2.80;1.52;;;18.10;70.70;;;;;;2097428;28;20021;-84
2021/06/15 03:52:59;;;;;;;2.10;1.40;;;18.10;70.60;;;;;;2089068;28;20056;-84
2021/06/15 03:54:10;;;;;;;2.22;1.40;;;18.10;70.60;;;;;;2089166;28;20032;-84
2021/06/15 03:55:13;;;;;;;2.90;1.27;;;18.10;70.50;;;;;;2081401;28;20037;-84
2021/06/15 03:56:14;;;;;;;2.90;1.20;;;18.10;70.40;;;;;;2089574;28;20040;-84
2021/06/15 03:57:16;;;;;;;2.40;1.40;;;18.10;70.40;;;;;;2088901;28;20033;-84
2021/06/15 03:58:18;;;;;;;2.05;1.13;;;18.00;70.30;;;;;;2080582;28;20390;-84
2021/06/15 03:59:23;;;;;;;1.90;1.25;;;18.00;70.30;;;;;;2076756;28;20045;-84
2021/06/15 04:00:25;;;;;;;2.47;1.05;;;18.00;70.20;;;;;;2081943;28;20048;-84
2021/06/15 04:01:26;;;;;;;2.75;1.23;;;18.00;70.20;;;;;;2087236;28;20536;-84
2021/06/15 04:02:28;;;;;;;2.17;1.10;;;17.90;70.10;;;;;;2066890;28;20044;-84
2021/06/15 04:03:32;;;;;;;2.55;1.20;;;17.90;70.80;;;;;;2080814;28;20030;-84
2021/06/15 04:04:37;;;;;;;2.08;1.10;;;17.90;70.20;;;;;;2091965;28;20033;-84
2021/06/15 04:05:39;;;;;;;2.35;1.40;;;17.90;70.20;;;;;;2097509;28;20016;-84
2021/06/15 04:06:46;;;;;;;2.95;1.30;;;17.90;70.10;;;;;;2088792;28;20459;-84
2021/06/15 04:07:47;;;;;;;2.00;1.10;;;17.90;70.00;;;;;;2083263;28;20028;-83
2021/06/15 04:08:49;;;;;;;1.83;1.00;;;17.80;69.90;;;;;;2083439;28;20085;-83
2021/06/15 04:09:51;;;;;;;1.85;1.00;;;17.80;69.90;;;;;;2083654;28;20029;-84
2021/06/15 04:10:54;;;;;;;2.53;1.05;;;17.80;69.90;;;;;;2091698;28;20021;-83
2021/06/15 04:11:58;;;;;;;2.08;1.02;;;17.90;70.00;;;;;;2093062;28;20103;-83
2021/06/15 04:13:02;;;;;;;2.03;1.02;;;17.90;70.00;;;;;;2093175;28;20032;-83
2021/06/15 04:14:06;;;;;;;2.72;1.13;;;17.80;69.80;;;;;;2082633;28;20053;-84
2021/06/15 04:15:10;;;;;;;2.50;1.02;;;17.90;69.80;;;;;;2089053;28;20025;-83
2021/06/15 04:16:12;;;;;;;1.67;1.00;;;17.90;69.70;;;;;;2080807;28;20042;-83
2021/06/15 04:17:16;;;;;;;1.67;0.95;;;17.90;69.60;;;;;;2072902;28;20034;-84
2021/06/15 04:18:20;;;;;;;2.13;0.93;;;17.90;69.50;;;;;;2082272;28;20029;-84
2021/06/15 04:19:28;;;;;;;1.75;0.90;;;17.90;69.40;;;;;;2084386;28;20038;-83
2021/06/15 04:20:33;;;;;;;1.42;1.00;;;17.90;69.30;;;;;;2085954;28;20168;-84
2021/06/15 04:21:38;;;;;;;2.03;0.80;;;17.90;69.20;;;;;;2103079;28;20579;-84
2021/06/15 04:22:45;;;;;;;1.45;0.90;;;17.90;69.20;;;;;;2103971;28;20029;-85
2021/06/15 04:23:55;;;;;;;2.63;0.82;;;17.90;69.10;;;;;;2098205;28;20428;-84
2021/06/15 04:24:58;;;;;;;1.58;0.93;;;18.00;68.90;;;;;;2098168;28;20486;-84
2021/06/15 04:25:59;;;;;;;1.25;0.68;;;17.90;68.80;;;;;;2089102;28;20021;-84
2021/06/15 04:27:00;;;;;;;1.20;0.77;;;18.00;68.70;;;;;;2080312;28;20029;-84
2021/06/15 04:28:02;;;;;;;1.25;0.80;;;18.00;68.60;;;;;;2077402;28;20037;-84
2021/06/15 04:29:05;;;;;;;2.80;0.90;;;18.00;68.50;;;;;;2088710;28;20056;-84
2021/06/15 04:30:08;;;;;;;2.05;0.70;;;18.00;68.50;;;;;;2099944;28;20051;-84
2021/06/15 04:31:10;;;;;;;1.95;0.70;;;18.00;68.40;;;;;;2088421;28;20114;-84
2021/06/15 04:32:12;;;;;;;2.40;1.02;;;18.00;68.40;;;;;;2088835;28;20384;-85
2021/06/15 04:33:16;;;;;;;1.27;0.80;;;18.00;68.30;;;;;;2080494;28;20029;-84
2021/06/15 04:34:21;;;;;;;1.70;0.70;;;18.00;68.30;;;;;;2080854;28;20033;-85
2021/06/15 04:35:26;;;;;;;2.20;0.80;;;18.00;68.20;;;;;;2087724;28;20032;-84
2021/06/15 04:36:29;;;;;;;0.93;0.60;;;18.00;68.20;;;;;;2088118;28;20021;-84
2021/06/15 04:37:33;;;;;;;1.55;0.75;;;18.00;68.20;;;;;;2089089;28;20033;-84
2021/06/15 04:38:51;;;;;;;2.20;0.80;;;17.90;68.20;;;;;;2086327;28;20025;-84
2021/06/15 04:40:12;;;;;;;1.95;0.70;;;17.90;68.10;;;;;;2081530;28;20133;-84
2021/06/15 04:41:16;;;;;;;1.70;0.70;;;17.90;68.00;;;;;;2090288;28;20093;-84
2021/06/15 04:42:27;;;;;;;2.78;0.90;;;17.90;68.00;;;;;;2096535;28;20033;-84
2021/06/15 04:43:38;;;;;;;1.75;0.70;;;17.90;68.00;;;;;;2088652;28;20018;-85
2021/06/15 04:44:42;;;;;;;2.60;1.00;;;17.90;68.00;;;;;;2082360;28;20021;-84
2021/06/15 04:45:44;;;;;;;2.33;0.80;;;17.90;67.90;;;;;;2094172;28;20020;-83
2021/06/15 04:46:55;;;;;;;1.60;0.65;;;17.90;67.90;;;;;;2089692;28;20029;-84
2021/06/15 04:48:06;;;;;;;1.42;0.70;;;17.90;67.90;;;;;;2082839;28;20482;-83
2021/06/15 04:49:10;;;;;;;2.97;0.80;;;17.90;67.70;;;;;;2088234;28;20033;-84
2021/06/15 04:50:26;;;;;;;2.25;0.70;;;17.90;67.60;;;;;;2090590;28;20049;-84
2021/06/15 04:51:30;;;;;;;1.13;0.70;;;17.90;67.60;;;;;;2084185;28;20021;-84
2021/06/15 04:52:32;;;;;;;1.60;0.60;;;17.90;67.60;;;;;;2085060;28;20064;-84
2021/06/15 04:53:38;;;;;;;1.55;0.65;;;17.90;67.40;;;;;;2090606;28;20029;-84
2021/06/15 04:54:41;;;;;;;1.40;0.60;;;17.90;67.40;;;;;;2088284;28;20017;-84
2021/06/15 04:55:43;;;;;;;1.50;0.75;;;17.90;67.30;;;;;;2089431;28;20037;-83
2021/06/15 04:56:45;;;;;;;2.17;0.65;;;17.90;67.30;;;;;;2090054;28;20040;-84
2021/06/15 04:57:47;;;;;;;2.15;0.60;;;17.90;67.30;;;;;;2085401;28;20025;-84
2021/06/15 04:58:48;;;;;;;2.33;0.70;;;17.90;67.20;;;;;;2087051;28;20158;-84
2021/06/15 04:59:52;;;;;;;2.03;0.60;;;17.90;67.20;;;;;;2090250;28;20044;-84
2021/06/15 05:00:54;;;;;;;2.85;0.70;;;17.90;67.70;;;;;;2089377;28;20028;-84
2021/06/15 05:01:55;;;;;;;2.03;0.60;;;17.90;67.00;;;;;;2096933;28;20020;-84
2021/06/15 05:02:58;;;;;;;1.75;0.60;;;17.90;66.90;;;;;;2092128;28;20033;-84
2021/06/15 05:03:59;;;;;;;2.97;0.75;;;17.90;66.90;;;;;;2086167;28;20109;-84
2021/06/15 05:04:59;;;;;;;2.92;0.55;;;17.90;66.90;;;;;;2082074;28;20030;-84
2021/06/15 05:06:07;;;;;;;1.50;0.60;;;17.90;66.90;;;;;;2078127;28;20033;-84
2021/06/15 05:07:08;;;;;;;1.33;0.65;;;17.90;66.80;;;;;;2083158;28;20038;-84
2021/06/15 05:08:14;;;;;;;0.90;0.45;;;17.90;66.80;;;;;;2089049;28;20040;-84
2021/06/15 05:09:15;;;;;;;1.27;0.40;;;17.90;66.80;;;;;;2082487;28;20079;-84
2021/06/15 05:10:19;;;;;;;1.52;0.60;;;17.90;66.80;;;;;;2089593;28;20135;-84
2021/06/15 05:11:21;;;;;;;1.30;0.50;;;17.90;66.70;;;;;;2086640;28;20029;-84
2021/06/15 05:12:24;;;;;;;1.90;0.65;;;17.90;66.70;;;;;;2081886;28;20128;-83
2021/06/15 05:13:26;;;;;;;2.88;0.52;;;17.90;66.70;;;;;;2080697;28;20040;-84
2021/06/15 05:14:32;;;;;;;0.90;0.50;;;17.80;66.60;;;;;;2077014;28;20499;-83
2021/06/15 05:15:33;;;;;;;1.58;0.50;;;17.80;67.20;;;;;;2081115;28;20026;-84
2021/06/15 05:16:35;;;;;;;2.30;0.50;;;17.80;66.60;;;;;;2075160;28;20427;-84
2021/06/15 05:17:36;;;;;;;2.28;0.50;;;17.80;66.50;;;;;;2082276;28;20044;-85
2021/06/15 05:18:37;;;;;;;2.35;0.60;;;17.80;66.50;;;;;;2081667;28;20029;-84
2021/06/15 05:19:40;;;;;;;1.33;0.50;;;17.80;66.40;;;;;;2073659;28;20040;-84
2021/06/15 05:20:42;;;;;;;1.52;0.43;;;17.90;66.40;;;;;;2079216;28;20035;-84
2021/06/15 05:22:06;;;;;;;1.38;0.57;;;17.80;66.90;;;;;;2072893;28;20502;-84
2021/06/15 05:23:23;;;;;;;1.02;0.40;;;17.90;66.20;;;;;;2087933;28;20480;-84
2021/06/15 05:24:55;;;;;;;1.90;0.50;;;17.80;66.20;;;;;;2089171;28;21296;-84
2021/06/15 05:25:55;;;;;;;0.93;0.50;;;17.80;66.20;;;;;;2090917;28;20029;-84
2021/06/15 05:26:57;;;;;;;1.48;0.50;;;17.80;66.80;;;;;;2081529;28;20125;-83
2021/06/15 05:27:58;;;;;;;1.10;0.40;;;17.80;66.10;;;;;;2081985;28;20033;-84
2021/06/15 05:28:59;;;;;;;2.22;0.50;;;17.80;66.10;;;;;;2090133;28;20033;-85
2021/06/15 05:30:01;;;;;;;2.30;0.57;;;17.90;66.10;;;;;;2082334;28;20502;-84
2021/06/15 05:31:02;;;;;;;1.90;0.52;;;17.90;66.00;;;;;;2081617;28;20120;-84
2021/06/15 05:32:06;;;;;;;2.17;0.50;;;17.90;65.90;;;;;;2081386;28;20029;-85
2021/06/15 05:33:07;;;;;;;1.60;0.60;;;17.90;65.90;;;;;;2074197;28;20052;-84
2021/06/15 05:34:07;;;;;;;1.88;0.40;;;17.90;65.80;;;;;;2081870;28;20420;-85
2021/06/15 05:35:09;;;;;;;2.78;0.68;;;17.90;65.70;;;;;;2088662;28;20065;-84
2021/06/15 05:36:10;;;;;;;2.55;0.60;;;17.90;65.70;;;;;;2081600;28;20472;-85
2021/06/15 05:37:11;;;;;;;2.92;0.60;;;18.00;65.80;;;;;;2074219;28;20025;-85